sensor_id;sensor_type;location;lat;lon;timestamp;P1;durP1;ratioP1;P2;durP2;ratioP2
21743;SDS011;11034;48.556;9.342;2023-04-25T00:02:03;8.70;;;3.25;;
21743;SDS011;11034;48.556;9.342;2023-04-25T00:04:34;8.15;;;2.80;;
21743;SDS011;11034;48.556;9.342;2023-04-25T00:07:04;6.60;;;2.83;;
21743;SDS011;11034;48.556;9.342;2023-04-25T00:09:32;5.47;;;3.00;;
21743;SDS011;11034;48.556;9.342;2023-04-25T00:12:00;6.05;;;3.20;;
21743;SDS011;11034;48.556;9.342;2023-04-25T00:14:28;4.13;;;2.63;;
21743;SDS011;11034;48.556;9.342;2023-04-25T00:16:56;5.55;;;2.83;;
21743;SDS011;11034;48.556;9.342;2023-04-25T00:19:25;5.35;;;3.10;;
21743;SDS011;11034;48.556;9.342;2023-04-25T00:21:55;4.40;;;2.72;;
21743;SDS011;11034;48.556;9.342;2023-04-25T00:24:24;5.18;;;3.00;;
21743;SDS011;11034;48.556;9.342;2023-04-25T00:26:52;6.93;;;3.10;;
21743;SDS011;11034;48.556;9.342;2023-04-25T00:29:20;6.97;;;2.92;;
21743;SDS011;11034;48.556;9.342;2023-04-25T00:31:48;4.40;;;2.90;;
21743;SDS011;11034;48.556;9.342;2023-04-25T00:34:16;6.57;;;2.67;;
21743;SDS011;11034;48.556;9.342;2023-04-25T00:36:44;7.20;;;3.00;;
21743;SDS011;11034;48.556;9.342;2023-04-25T00:39:13;6.97;;;3.22;;
21743;SDS011;11034;48.556;9.342;2023-04-25T00:41:41;6.07;;;3.20;;
21743;SDS011;11034;48.556;9.342;2023-04-25T00:44:10;6.20;;;3.25;;
21743;SDS011;11034;48.556;9.342;2023-04-25T00:46:39;5.07;;;2.90;;
21743;SDS011;11034;48.556;9.342;2023-04-25T00:49:07;7.40;;;2.92;;
21743;SDS011;11034;48.556;9.342;2023-04-25T00:51:41;5.82;;;3.13;;
21743;SDS011;11034;48.556;9.342;2023-04-25T00:54:10;5.13;;;2.80;;
21743;SDS011;11034;48.556;9.342;2023-04-25T00:56:40;9.50;;;3.13;;
21743;SDS011;11034;48.556;9.342;2023-04-25T00:59:09;7.38;;;2.95;;
21743;SDS011;11034;48.556;9.342;2023-04-25T01:01:37;4.40;;;2.67;;
21743;SDS011;11034;48.556;9.342;2023-04-25T01:04:06;9.15;;;3.22;;
21743;SDS011;11034;48.556;9.342;2023-04-25T01:06:34;5.22;;;2.70;;
21743;SDS011;11034;48.556;9.342;2023-04-25T01:09:03;6.07;;;2.80;;
21743;SDS011;11034;48.556;9.342;2023-04-25T01:11:31;7.60;;;3.20;;
21743;SDS011;11034;48.556;9.342;2023-04-25T01:14:01;5.95;;;2.85;;
21743;SDS011;11034;48.556;9.342;2023-04-25T01:16:29;7.15;;;3.00;;
21743;SDS011;11034;48.556;9.342;2023-04-25T01:18:59;6.97;;;2.83;;
21743;SDS011;11034;48.556;9.342;2023-04-25T01:21:29;8.23;;;3.28;;
21743;SDS011;11034;48.556;9.342;2023-04-25T01:23:57;6.50;;;2.78;;
21743;SDS011;11034;48.556;9.342;2023-04-25T01:26:25;5.03;;;2.53;;
21743;SDS011;11034;48.556;9.342;2023-04-25T01:28:54;5.72;;;2.90;;
21743;SDS011;11034;48.556;9.342;2023-04-25T01:31:22;4.78;;;2.80;;
21743;SDS011;11034;48.556;9.342;2023-04-25T01:33:50;3.97;;;2.70;;
21743;SDS011;11034;48.556;9.342;2023-04-25T01:36:19;6.90;;;2.90;;
21743;SDS011;11034;48.556;9.342;2023-04-25T01:38:50;7.20;;;2.88;;
21743;SDS011;11034;48.556;9.342;2023-04-25T01:41:18;4.82;;;2.92;;
21743;SDS011;11034;48.556;9.342;2023-04-25T01:43:48;5.32;;;2.65;;
21743;SDS011;11034;48.556;9.342;2023-04-25T01:46:17;5.22;;;3.00;;
21743;SDS011;11034;48.556;9.342;2023-04-25T01:48:45;6.50;;;2.83;;
21743;SDS011;11034;48.556;9.342;2023-04-25T01:51:13;6.85;;;2.85;;
21743;SDS011;11034;48.556;9.342;2023-04-25T01:53:42;6.07;;;2.92;;
21743;SDS011;11034;48.556;9.342;2023-04-25T01:56:12;4.13;;;2.90;;
21743;SDS011;11034;48.556;9.342;2023-04-25T01:58:40;5.55;;;3.30;;
21743;SDS011;11034;48.556;9.342;2023-04-25T02:01:08;5.60;;;3.10;;
21743;SDS011;11034;48.556;9.342;2023-04-25T02:03:36;6.78;;;3.30;;
21743;SDS011;11034;48.556;9.342;2023-04-25T02:06:04;5.72;;;3.00;;
21743;SDS011;11034;48.556;9.342;2023-04-25T02:08:32;6.88;;;3.72;;
21743;SDS011;11034;48.556;9.342;2023-04-25T02:11:00;4.50;;;2.58;;
21743;SDS011;11034;48.556;9.342;2023-04-25T02:13:30;5.28;;;3.20;;
21743;SDS011;11034;48.556;9.342;2023-04-25T02:15:58;5.80;;;3.05;;
21743;SDS011;11034;48.556;9.342;2023-04-25T02:18:26;6.57;;;3.13;;
21743;SDS011;11034;48.556;9.342;2023-04-25T02:20:54;6.50;;;3.55;;
21743;SDS011;11034;48.556;9.342;2023-04-25T02:23:22;7.50;;;3.45;;
21743;SDS011;11034;48.556;9.342;2023-04-25T02:25:50;6.68;;;3.40;;
21743;SDS011;11034;48.556;9.342;2023-04-25T02:28:21;8.43;;;3.35;;
21743;SDS011;11034;48.556;9.342;2023-04-25T02:30:50;6.28;;;3.40;;
21743;SDS011;11034;48.556;9.342;2023-04-25T02:33:18;6.65;;;3.55;;
21743;SDS011;11034;48.556;9.342;2023-04-25T02:35:47;7.47;;;3.78;;
21743;SDS011;11034;48.556;9.342;2023-04-25T02:38:15;5.85;;;3.40;;
21743;SDS011;11034;48.556;9.342;2023-04-25T02:40:43;5.25;;;3.40;;
21743;SDS011;11034;48.556;9.342;2023-04-25T02:43:11;6.82;;;3.85;;
21743;SDS011;11034;48.556;9.342;2023-04-25T02:45:39;8.05;;;3.72;;
21743;SDS011;11034;48.556;9.342;2023-04-25T02:48:08;6.78;;;3.78;;
21743;SDS011;11034;48.556;9.342;2023-04-25T02:50:36;6.15;;;3.30;;
21743;SDS011;11034;48.556;9.342;2023-04-25T02:53:04;5.38;;;3.33;;
21743;SDS011;11034;48.556;9.342;2023-04-25T02:55:32;4.43;;;3.15;;
21743;SDS011;11034;48.556;9.342;2023-04-25T02:58:00;4.72;;;3.30;;
21743;SDS011;11034;48.556;9.342;2023-04-25T03:00:28;7.22;;;3.35;;
21743;SDS011;11034;48.556;9.342;2023-04-25T03:02:56;8.57;;;3.30;;
21743;SDS011;11034;48.556;9.342;2023-04-25T03:05:26;6.15;;;3.00;;
21743;SDS011;11034;48.556;9.342;2023-04-25T03:07:53;7.38;;;3.15;;
21743;SDS011;11034;48.556;9.342;2023-04-25T03:10:21;7.47;;;3.25;;
21743;SDS011;11034;48.556;9.342;2023-04-25T03:12:49;5.63;;;3.10;;
21743;SDS011;11034;48.556;9.342;2023-04-25T03:15:17;6.50;;;3.05;;
21743;SDS011;11034;48.556;9.342;2023-04-25T03:17:45;7.13;;;3.10;;
21743;SDS011;11034;48.556;9.342;2023-04-25T03:20:14;7.47;;;3.25;;
21743;SDS011;11034;48.556;9.342;2023-04-25T03:22:43;5.45;;;3.05;;
21743;SDS011;11034;48.556;9.342;2023-04-25T03:25:11;6.22;;;3.10;;
21743;SDS011;11034;48.556;9.342;2023-04-25T03:27:39;11.15;;;3.10;;
21743;SDS011;11034;48.556;9.342;2023-04-25T03:30:07;5.03;;;2.95;;
21743;SDS011;11034;48.556;9.342;2023-04-25T03:32:36;5.88;;;2.97;;
21743;SDS011;11034;48.556;9.342;2023-04-25T03:35:04;5.80;;;2.78;;
21743;SDS011;11034;48.556;9.342;2023-04-25T03:37:32;4.82;;;2.70;;
21743;SDS011;11034;48.556;9.342;2023-04-25T03:40:01;6.80;;;2.60;;
21743;SDS011;11034;48.556;9.342;2023-04-25T03:42:30;5.03;;;2.60;;
21743;SDS011;11034;48.556;9.342;2023-04-25T03:44:58;4.25;;;2.47;;
21743;SDS011;11034;48.556;9.342;2023-04-25T03:47:26;4.45;;;2.50;;
21743;SDS011;11034;48.556;9.342;2023-04-25T03:49:54;3.20;;;2.25;;
21743;SDS011;11034;48.556;9.342;2023-04-25T03:52:21;4.95;;;2.60;;
21743;SDS011;11034;48.556;9.342;2023-04-25T03:54:49;5.05;;;2.30;;
21743;SDS011;11034;48.556;9.342;2023-04-25T03:57:19;6.05;;;2.67;;
21743;SDS011;11034;48.556;9.342;2023-04-25T03:59:47;4.50;;;2.53;;
21743;SDS011;11034;48.556;9.342;2023-04-25T04:02:15;6.22;;;2.20;;
21743;SDS011;11034;48.556;9.342;2023-04-25T04:04:43;3.65;;;2.38;;
21743;SDS011;11034;48.556;9.342;2023-04-25T04:07:12;4.53;;;2.30;;
21743;SDS011;11034;48.556;9.342;2023-04-25T04:09:40;3.60;;;2.40;;
21743;SDS011;11034;48.556;9.342;2023-04-25T04:12:08;5.00;;;2.22;;
21743;SDS011;11034;48.556;9.342;2023-04-25T04:14:37;3.42;;;2.47;;
21743;SDS011;11034;48.556;9.342;2023-04-25T04:17:05;4.28;;;2.60;;
21743;SDS011;11034;48.556;9.342;2023-04-25T04:19:34;5.68;;;2.72;;
21743;SDS011;11034;48.556;9.342;2023-04-25T04:22:02;6.80;;;2.50;;
21743;SDS011;11034;48.556;9.342;2023-04-25T04:24:30;5.20;;;2.50;;
21743;SDS011;11034;48.556;9.342;2023-04-25T04:26:58;4.65;;;2.72;;
21743;SDS011;11034;48.556;9.342;2023-04-25T04:29:26;5.63;;;2.50;;
21743;SDS011;11034;48.556;9.342;2023-04-25T04:31:56;4.47;;;2.47;;
21743;SDS011;11034;48.556;9.342;2023-04-25T04:34:24;7.30;;;2.55;;
21743;SDS011;11034;48.556;9.342;2023-04-25T04:36:53;5.50;;;2.50;;
21743;SDS011;11034;48.556;9.342;2023-04-25T04:39:21;4.97;;;2.38;;
21743;SDS011;11034;48.556;9.342;2023-04-25T04:41:49;8.40;;;2.47;;
21743;SDS011;11034;48.556;9.342;2023-04-25T04:44:17;4.82;;;2.83;;
21743;SDS011;11034;48.556;9.342;2023-04-25T04:46:45;6.03;;;2.60;;
21743;SDS011;11034;48.556;9.342;2023-04-25T04:49:16;6.25;;;2.95;;
21743;SDS011;11034;48.556;9.342;2023-04-25T04:51:44;4.53;;;2.70;;
21743;SDS011;11034;48.556;9.342;2023-04-25T04:54:13;3.83;;;2.67;;
21743;SDS011;11034;48.556;9.342;2023-04-25T04:56:41;5.72;;;2.97;;
21743;SDS011;11034;48.556;9.342;2023-04-25T04:59:09;6.32;;;2.78;;
21743;SDS011;11034;48.556;9.342;2023-04-25T05:01:37;8.60;;;2.97;;
21743;SDS011;11034;48.556;9.342;2023-04-25T05:04:05;7.28;;;3.10;;
21743;SDS011;11034;48.556;9.342;2023-04-25T05:06:35;5.80;;;2.55;;
21743;SDS011;11034;48.556;9.342;2023-04-25T05:09:03;7.90;;;2.60;;
21743;SDS011;11034;48.556;9.342;2023-04-25T05:11:31;4.47;;;2.45;;
21743;SDS011;11034;48.556;9.342;2023-04-25T05:13:59;6.85;;;2.70;;
21743;SDS011;11034;48.556;9.342;2023-04-25T05:16:28;8.00;;;2.50;;
21743;SDS011;11034;48.556;9.342;2023-04-25T05:18:56;4.78;;;2.63;;
21743;SDS011;11034;48.556;9.342;2023-04-25T05:21:24;6.15;;;2.67;;
21743;SDS011;11034;48.556;9.342;2023-04-25T05:23:55;9.48;;;2.67;;
21743;SDS011;11034;48.556;9.342;2023-04-25T05:26:23;4.10;;;2.40;;
21743;SDS011;11034;48.556;9.342;2023-04-25T05:28:51;6.20;;;2.67;;
21743;SDS011;11034;48.556;9.342;2023-04-25T05:31:19;5.18;;;2.88;;
21743;SDS011;11034;48.556;9.342;2023-04-25T05:33:47;6.88;;;2.92;;
21743;SDS011;11034;48.556;9.342;2023-04-25T05:36:15;7.60;;;2.40;;
21743;SDS011;11034;48.556;9.342;2023-04-25T05:38:43;5.30;;;2.47;;
21743;SDS011;11034;48.556;9.342;2023-04-25T05:41:13;6.18;;;2.75;;
21743;SDS011;11034;48.556;9.342;2023-04-25T05:43:41;6.55;;;2.83;;
21743;SDS011;11034;48.556;9.342;2023-04-25T05:46:13;5.72;;;3.15;;
21743;SDS011;11034;48.556;9.342;2023-04-25T05:48:41;7.25;;;3.35;;
21743;SDS011;11034;48.556;9.342;2023-04-25T05:51:10;7.82;;;3.30;;
21743;SDS011;11034;48.556;9.342;2023-04-25T05:53:38;7.53;;;3.60;;
21743;SDS011;11034;48.556;9.342;2023-04-25T05:56:06;8.35;;;3.92;;
21743;SDS011;11034;48.556;9.342;2023-04-25T05:58:35;6.22;;;3.42;;
21743;SDS011;11034;48.556;9.342;2023-04-25T06:01:03;7.07;;;3.28;;
21743;SDS011;11034;48.556;9.342;2023-04-25T06:03:31;7.05;;;3.40;;
21743;SDS011;11034;48.556;9.342;2023-04-25T06:06:00;8.55;;;3.70;;
21743;SDS011;11034;48.556;9.342;2023-04-25T06:08:28;4.30;;;3.40;;
21743;SDS011;11034;48.556;9.342;2023-04-25T06:10:56;8.25;;;3.30;;
21743;SDS011;11034;48.556;9.342;2023-04-25T06:13:24;5.43;;;3.10;;
21743;SDS011;11034;48.556;9.342;2023-04-25T06:15:54;5.30;;;3.30;;
21743;SDS011;11034;48.556;9.342;2023-04-25T06:18:22;7.85;;;2.90;;
21743;SDS011;11034;48.556;9.342;2023-04-25T06:20:50;5.88;;;2.60;;
21743;SDS011;11034;48.556;9.342;2023-04-25T06:23:18;5.00;;;2.53;;
21743;SDS011;11034;48.556;9.342;2023-04-25T06:25:46;5.63;;;2.80;;
21743;SDS011;11034;48.556;9.342;2023-04-25T06:28:14;6.25;;;2.40;;
21743;SDS011;11034;48.556;9.342;2023-04-25T06:30:42;4.18;;;2.13;;
21743;SDS011;11034;48.556;9.342;2023-04-25T06:33:11;5.40;;;2.30;;
21743;SDS011;11034;48.556;9.342;2023-04-25T06:35:39;4.80;;;2.13;;
21743;SDS011;11034;48.556;9.342;2023-04-25T06:38:07;3.88;;;2.30;;
21743;SDS011;11034;48.556;9.342;2023-04-25T06:40:35;4.30;;;2.50;;
21743;SDS011;11034;48.556;9.342;2023-04-25T06:43:03;6.93;;;3.00;;
21743;SDS011;11034;48.556;9.342;2023-04-25T06:45:31;4.38;;;2.28;;
21743;SDS011;11034;48.556;9.342;2023-04-25T06:48:00;5.05;;;2.38;;
21743;SDS011;11034;48.556;9.342;2023-04-25T06:50:29;3.60;;;2.28;;
21743;SDS011;11034;48.556;9.342;2023-04-25T06:52:57;4.53;;;2.38;;
21743;SDS011;11034;48.556;9.342;2023-04-25T06:55:27;3.45;;;2.20;;
21743;SDS011;11034;48.556;9.342;2023-04-25T06:57:56;4.40;;;2.28;;
21743;SDS011;11034;48.556;9.342;2023-04-25T07:00:24;3.47;;;2.50;;
21743;SDS011;11034;48.556;9.342;2023-04-25T07:02:52;6.22;;;2.58;;
21743;SDS011;11034;48.556;9.342;2023-04-25T07:05:20;6.65;;;2.70;;
21743;SDS011;11034;48.556;9.342;2023-04-25T07:07:49;4.90;;;3.35;;
21743;SDS011;11034;48.556;9.342;2023-04-25T07:10:17;4.15;;;2.45;;
21743;SDS011;11034;48.556;9.342;2023-04-25T07:12:47;3.97;;;2.30;;
21743;SDS011;11034;48.556;9.342;2023-04-25T07:15:15;5.00;;;2.03;;
21743;SDS011;11034;48.556;9.342;2023-04-25T07:17:43;3.58;;;2.30;;
21743;SDS011;11034;48.556;9.342;2023-04-25T07:20:11;4.95;;;2.83;;
21743;SDS011;11034;48.556;9.342;2023-04-25T07:22:40;6.15;;;3.05;;
21743;SDS011;11034;48.556;9.342;2023-04-25T07:25:09;3.95;;;2.63;;
21743;SDS011;11034;48.556;9.342;2023-04-25T07:27:37;5.28;;;2.55;;
21743;SDS011;11034;48.556;9.342;2023-04-25T07:30:06;3.60;;;2.40;;
21743;SDS011;11034;48.556;9.342;2023-04-25T07:32:34;5.18;;;2.75;;
21743;SDS011;11034;48.556;9.342;2023-04-25T07:35:03;4.82;;;2.90;;
21743;SDS011;11034;48.556;9.342;2023-04-25T07:37:33;7.75;;;3.08;;
21743;SDS011;11034;48.556;9.342;2023-04-25T07:40:01;8.95;;;3.67;;
21743;SDS011;11034;48.556;9.342;2023-04-25T07:42:31;7.05;;;3.53;;
21743;SDS011;11034;48.556;9.342;2023-04-25T07:45:00;6.28;;;3.70;;
21743;SDS011;11034;48.556;9.342;2023-04-25T07:47:28;7.95;;;3.90;;
21743;SDS011;11034;48.556;9.342;2023-04-25T07:49:57;7.43;;;3.70;;
21743;SDS011;11034;48.556;9.342;2023-04-25T07:52:25;6.22;;;3.92;;
21743;SDS011;11034;48.556;9.342;2023-04-25T07:54:53;6.63;;;3.70;;
21743;SDS011;11034;48.556;9.342;2023-04-25T07:57:21;4.82;;;3.90;;
21743;SDS011;11034;48.556;9.342;2023-04-25T07:59:51;8.18;;;4.95;;
21743;SDS011;11034;48.556;9.342;2023-04-25T08:02:19;7.07;;;4.95;;
21743;SDS011;11034;48.556;9.342;2023-04-25T08:04:47;7.90;;;4.85;;
21743;SDS011;11034;48.556;9.342;2023-04-25T08:07:16;10.02;;;6.60;;
21743;SDS011;11034;48.556;9.342;2023-04-25T08:09:44;8.85;;;5.20;;
21743;SDS011;11034;48.556;9.342;2023-04-25T08:12:12;8.43;;;4.57;;
21743;SDS011;11034;48.556;9.342;2023-04-25T08:14:40;9.70;;;4.97;;
21743;SDS011;11034;48.556;9.342;2023-04-25T08:17:09;8.60;;;4.43;;
21743;SDS011;11034;48.556;9.342;2023-04-25T08:19:37;7.80;;;4.20;;
21743;SDS011;11034;48.556;9.342;2023-04-25T08:22:05;7.63;;;4.45;;
21743;SDS011;11034;48.556;9.342;2023-04-25T08:24:33;7.82;;;4.18;;
21743;SDS011;11034;48.556;9.342;2023-04-25T08:27:04;7.22;;;4.22;;
21743;SDS011;11034;48.556;9.342;2023-04-25T08:29:33;6.25;;;4.72;;
21743;SDS011;11034;48.556;9.342;2023-04-25T08:32:02;10.00;;;4.95;;
21743;SDS011;11034;48.556;9.342;2023-04-25T08:34:31;7.88;;;4.90;;
21743;SDS011;11034;48.556;9.342;2023-04-25T08:36:59;7.45;;;5.25;;
21743;SDS011;11034;48.556;9.342;2023-04-25T08:39:27;9.55;;;5.50;;
21743;SDS011;11034;48.556;9.342;2023-04-25T08:41:55;7.18;;;4.40;;
21743;SDS011;11034;48.556;9.342;2023-04-25T08:44:24;7.50;;;4.78;;
21743;SDS011;11034;48.556;9.342;2023-04-25T08:46:52;5.65;;;4.78;;
21743;SDS011;11034;48.556;9.342;2023-04-25T08:49:21;6.93;;;4.97;;
21743;SDS011;11034;48.556;9.342;2023-04-25T08:51:51;7.03;;;5.25;;
21743;SDS011;11034;48.556;9.342;2023-04-25T08:54:20;7.75;;;4.85;;
21743;SDS011;11034;48.556;9.342;2023-04-25T08:57:02;9.85;;;7.28;;
21743;SDS011;11034;48.556;9.342;2023-04-25T08:59:31;6.07;;;4.35;;
21743;SDS011;11034;48.556;9.342;2023-04-25T09:02:02;6.70;;;4.93;;
21743;SDS011;11034;48.556;9.342;2023-04-25T09:04:31;6.47;;;4.78;;
21743;SDS011;11034;48.556;9.342;2023-04-25T09:07:00;6.90;;;4.38;;
21743;SDS011;11034;48.556;9.342;2023-04-25T09:09:29;6.63;;;4.70;;
21743;SDS011;11034;48.556;9.342;2023-04-25T09:11:57;6.05;;;4.60;;
21743;SDS011;11034;48.556;9.342;2023-04-25T09:14:25;8.18;;;5.68;;
21743;SDS011;11034;48.556;9.342;2023-04-25T09:17:01;6.55;;;4.00;;
21743;SDS011;11034;48.556;9.342;2023-04-25T09:19:31;5.47;;;3.90;;
21743;SDS011;11034;48.556;9.342;2023-04-25T09:22:07;4.80;;;4.10;;
21743;SDS011;11034;48.556;9.342;2023-04-25T09:24:36;4.38;;;3.88;;
21743;SDS011;11034;48.556;9.342;2023-04-25T09:27:05;6.07;;;3.72;;
21743;SDS011;11034;48.556;9.342;2023-04-25T09:29:35;4.53;;;3.55;;
21743;SDS011;11034;48.556;9.342;2023-04-25T09:32:14;4.93;;;3.63;;
21743;SDS011;11034;48.556;9.342;2023-04-25T09:34:47;5.78;;;4.22;;
21743;SDS011;11034;48.556;9.342;2023-04-25T09:37:18;5.82;;;3.60;;
21743;SDS011;11034;48.556;9.342;2023-04-25T09:39:48;4.95;;;3.85;;
21743;SDS011;11034;48.556;9.342;2023-04-25T09:42:17;5.32;;;4.05;;
21743;SDS011;11034;48.556;9.342;2023-04-25T09:44:45;4.88;;;4.00;;
21743;SDS011;11034;48.556;9.342;2023-04-25T09:47:14;6.75;;;4.47;;
21743;SDS011;11034;48.556;9.342;2023-04-25T09:49:44;6.60;;;4.68;;
21743;SDS011;11034;48.556;9.342;2023-04-25T09:52:15;9.23;;;5.47;;
21743;SDS011;11034;48.556;9.342;2023-04-25T09:54:49;8.88;;;5.60;;
21743;SDS011;11034;48.556;9.342;2023-04-25T09:57:19;8.38;;;6.30;;
21743;SDS011;11034;48.556;9.342;2023-04-25T09:59:48;9.18;;;6.38;;
21743;SDS011;11034;48.556;9.342;2023-04-25T10:02:18;10.13;;;5.75;;
21743;SDS011;11034;48.556;9.342;2023-04-25T10:04:48;7.78;;;5.00;;
21743;SDS011;11034;48.556;9.342;2023-04-25T10:07:20;7.10;;;5.20;;
21743;SDS011;11034;48.556;9.342;2023-04-25T10:09:54;9.02;;;6.25;;
21743;SDS011;11034;48.556;9.342;2023-04-25T10:12:26;7.35;;;5.60;;
21743;SDS011;11034;48.556;9.342;2023-04-25T10:14:54;9.25;;;5.80;;
21743;SDS011;11034;48.556;9.342;2023-04-25T10:17:23;7.70;;;4.60;;
21743;SDS011;11034;48.556;9.342;2023-04-25T10:19:51;8.38;;;5.30;;
21743;SDS011;11034;48.556;9.342;2023-04-25T10:22:23;11.13;;;6.88;;
21743;SDS011;11034;48.556;9.342;2023-04-25T10:24:57;4.40;;;3.42;;
21743;SDS011;11034;48.556;9.342;2023-04-25T10:27:26;2.85;;;2.03;;
21743;SDS011;11034;48.556;9.342;2023-04-25T10:30:01;2.70;;;2.28;;
21743;SDS011;11034;48.556;9.342;2023-04-25T10:32:31;2.72;;;2.05;;
21743;SDS011;11034;48.556;9.342;2023-04-25T10:35:09;4.82;;;2.10;;
21743;SDS011;11034;48.556;9.342;2023-04-25T10:37:39;2.67;;;1.90;;
21743;SDS011;11034;48.556;9.342;2023-04-25T10:46:15;2.28;;;1.88;;
21743;SDS011;11034;48.556;9.342;2023-04-25T10:48:45;3.22;;;2.60;;
21743;SDS011;11034;48.556;9.342;2023-04-25T10:51:16;3.85;;;2.40;;
21743;SDS011;11034;48.556;9.342;2023-04-25T10:53:46;3.88;;;2.50;;
21743;SDS011;11034;48.556;9.342;2023-04-25T10:56:25;3.38;;;3.08;;
21743;SDS011;11034;48.556;9.342;2023-04-25T10:59:04;5.32;;;3.97;;
21743;SDS011;11034;48.556;9.342;2023-04-25T11:01:38;4.57;;;3.42;;
21743;SDS011;11034;48.556;9.342;2023-04-25T11:04:18;3.42;;;3.00;;
21743;SDS011;11034;48.556;9.342;2023-04-25T11:06:53;4.55;;;3.20;;
21743;SDS011;11034;48.556;9.342;2023-04-25T11:09:33;3.03;;;2.38;;
21743;SDS011;11034;48.556;9.342;2023-04-25T11:12:03;2.20;;;1.55;;
21743;SDS011;11034;48.556;9.342;2023-04-25T11:14:32;1.80;;;1.50;;
21743;SDS011;11034;48.556;9.342;2023-04-25T11:17:00;1.75;;;1.48;;
21743;SDS011;11034;48.556;9.342;2023-04-25T11:19:29;2.17;;;1.25;;
21743;SDS011;11034;48.556;9.342;2023-04-25T11:21:57;1.40;;;1.10;;
21743;SDS011;11034;48.556;9.342;2023-04-25T11:24:27;1.35;;;1.20;;
21743;SDS011;11034;48.556;9.342;2023-04-25T11:26:57;1.60;;;1.10;;
21743;SDS011;11034;48.556;9.342;2023-04-25T11:29:28;1.17;;;0.85;;
21743;SDS011;11034;48.556;9.342;2023-04-25T11:31:57;1.35;;;1.17;;
21743;SDS011;11034;48.556;9.342;2023-04-25T11:34:27;1.38;;;1.20;;
21743;SDS011;11034;48.556;9.342;2023-04-25T11:36:57;1.38;;;0.98;;
21743;SDS011;11034;48.556;9.342;2023-04-25T11:39:26;1.33;;;1.23;;
21743;SDS011;11034;48.556;9.342;2023-04-25T11:41:55;2.20;;;1.73;;
21743;SDS011;11034;48.556;9.342;2023-04-25T11:44:24;2.35;;;1.67;;
21743;SDS011;11034;48.556;9.342;2023-04-25T11:46:53;12.95;;;7.13;;
21743;SDS011;11034;48.556;9.342;2023-04-25T11:49:21;3.30;;;3.00;;
21743;SDS011;11034;48.556;9.342;2023-04-25T11:51:51;2.17;;;1.33;;
21743;SDS011;11034;48.556;9.342;2023-04-25T11:54:19;1.42;;;1.25;;
21743;SDS011;11034;48.556;9.342;2023-04-25T11:56:47;2.25;;;1.45;;
21743;SDS011;11034;48.556;9.342;2023-04-25T11:59:15;1.92;;;1.30;;
21743;SDS011;11034;48.556;9.342;2023-04-25T12:01:49;1.95;;;1.60;;
21743;SDS011;11034;48.556;9.342;2023-04-25T12:04:18;1.30;;;1.20;;
21743;SDS011;11034;48.556;9.342;2023-04-25T12:06:48;2.00;;;1.80;;
21743;SDS011;11034;48.556;9.342;2023-04-25T12:09:18;1.60;;;1.50;;
21743;SDS011;11034;48.556;9.342;2023-04-25T12:11:48;2.95;;;2.15;;
21743;SDS011;11034;48.556;9.342;2023-04-25T12:14:26;4.45;;;3.38;;
21743;SDS011;11034;48.556;9.342;2023-04-25T12:16:56;3.13;;;2.00;;
21743;SDS011;11034;48.556;9.342;2023-04-25T12:19:25;4.60;;;3.10;;
21743;SDS011;11034;48.556;9.342;2023-04-25T12:21:59;3.08;;;2.33;;
21743;SDS011;11034;48.556;9.342;2023-04-25T12:24:29;3.00;;;2.33;;
21743;SDS011;11034;48.556;9.342;2023-04-25T12:27:04;2.45;;;1.50;;
21743;SDS011;11034;48.556;9.342;2023-04-25T12:29:34;2.28;;;1.90;;
21743;SDS011;11034;48.556;9.342;2023-04-25T12:32:16;9.52;;;5.03;;
21743;SDS011;11034;48.556;9.342;2023-04-25T12:34:44;9.57;;;4.55;;
21743;SDS011;11034;48.556;9.342;2023-04-25T12:37:13;1.30;;;1.20;;
21743;SDS011;11034;48.556;9.342;2023-04-25T12:39:41;1.23;;;1.10;;
21743;SDS011;11034;48.556;9.342;2023-04-25T12:42:09;1.50;;;1.33;;
21743;SDS011;11034;48.556;9.342;2023-04-25T12:44:39;3.38;;;2.30;;
21743;SDS011;11034;48.556;9.342;2023-04-25T12:47:07;2.00;;;1.60;;
21743;SDS011;11034;48.556;9.342;2023-04-25T12:49:37;1.85;;;1.20;;
21743;SDS011;11034;48.556;9.342;2023-04-25T12:52:05;1.30;;;1.20;;
21743;SDS011;11034;48.556;9.342;2023-04-25T12:54:33;1.83;;;1.30;;
21743;SDS011;11034;48.556;9.342;2023-04-25T12:57:01;2.75;;;1.40;;
21743;SDS011;11034;48.556;9.342;2023-04-25T12:59:30;1.55;;;1.30;;
21743;SDS011;11034;48.556;9.342;2023-04-25T13:01:58;1.20;;;1.10;;
21743;SDS011;11034;48.556;9.342;2023-04-25T13:04:26;1.38;;;1.27;;
21743;SDS011;11034;48.556;9.342;2023-04-25T13:06:56;1.92;;;1.60;;
21743;SDS011;11034;48.556;9.342;2023-04-25T13:09:24;1.75;;;1.60;;
21743;SDS011;11034;48.556;9.342;2023-04-25T13:11:52;2.10;;;1.90;;
21743;SDS011;11034;48.556;9.342;2023-04-25T13:14:23;2.17;;;1.98;;
21743;SDS011;11034;48.556;9.342;2023-04-25T13:16:51;3.88;;;2.30;;
21743;SDS011;11034;48.556;9.342;2023-04-25T13:19:20;2.17;;;1.90;;
21743;SDS011;11034;48.556;9.342;2023-04-25T13:21:48;3.35;;;2.08;;
21743;SDS011;11034;48.556;9.342;2023-04-25T13:24:18;2.40;;;2.10;;
21743;SDS011;11034;48.556;9.342;2023-04-25T13:26:46;2.55;;;1.92;;
21743;SDS011;11034;48.556;9.342;2023-04-25T13:29:14;2.20;;;1.70;;
21743;SDS011;11034;48.556;9.342;2023-04-25T13:31:42;2.03;;;1.80;;
21743;SDS011;11034;48.556;9.342;2023-04-25T13:34:10;2.88;;;2.00;;
21743;SDS011;11034;48.556;9.342;2023-04-25T13:36:39;4.00;;;2.10;;
21743;SDS011;11034;48.556;9.342;2023-04-25T13:39:07;2.10;;;1.90;;
21743;SDS011;11034;48.556;9.342;2023-04-25T13:41:36;2.67;;;2.38;;
21743;SDS011;11034;48.556;9.342;2023-04-25T13:44:04;2.50;;;2.00;;
21743;SDS011;11034;48.556;9.342;2023-04-25T13:46:32;3.85;;;3.05;;
21743;SDS011;11034;48.556;9.342;2023-04-25T13:49:12;7.70;;;4.00;;
21743;SDS011;11034;48.556;9.342;2023-04-25T13:51:40;4.88;;;3.00;;
21743;SDS011;11034;48.556;9.342;2023-04-25T13:54:09;6.47;;;4.07;;
21743;SDS011;11034;48.556;9.342;2023-04-25T13:56:38;3.92;;;2.40;;
21743;SDS011;11034;48.556;9.342;2023-04-25T13:59:08;4.25;;;2.80;;
21743;SDS011;11034;48.556;9.342;2023-04-25T14:01:36;3.70;;;2.50;;
21743;SDS011;11034;48.556;9.342;2023-04-25T14:04:04;3.00;;;2.35;;
21743;SDS011;11034;48.556;9.342;2023-04-25T14:06:33;3.05;;;2.42;;
21743;SDS011;11034;48.556;9.342;2023-04-25T14:09:01;3.83;;;2.38;;
21743;SDS011;11034;48.556;9.342;2023-04-25T14:11:30;5.43;;;3.00;;
21743;SDS011;11034;48.556;9.342;2023-04-25T14:14:00;3.95;;;2.65;;
21743;SDS011;11034;48.556;9.342;2023-04-25T14:16:28;4.03;;;2.53;;
21743;SDS011;11034;48.556;9.342;2023-04-25T14:18:57;2.88;;;2.30;;
21743;SDS011;11034;48.556;9.342;2023-04-25T14:21:26;4.07;;;2.60;;
21743;SDS011;11034;48.556;9.342;2023-04-25T14:23:54;3.80;;;2.72;;
21743;SDS011;11034;48.556;9.342;2023-04-25T14:26:22;4.60;;;2.50;;
21743;SDS011;11034;48.556;9.342;2023-04-25T14:28:50;3.95;;;3.08;;
21743;SDS011;11034;48.556;9.342;2023-04-25T14:31:20;3.22;;;2.80;;
21743;SDS011;11034;48.556;9.342;2023-04-25T14:33:48;7.47;;;3.03;;
21743;SDS011;11034;48.556;9.342;2023-04-25T14:36:17;4.80;;;3.53;;
21743;SDS011;11034;48.556;9.342;2023-04-25T14:38:45;5.53;;;3.63;;
21743;SDS011;11034;48.556;9.342;2023-04-25T14:41:13;6.45;;;3.83;;
21743;SDS011;11034;48.556;9.342;2023-04-25T14:43:41;5.57;;;3.10;;
21743;SDS011;11034;48.556;9.342;2023-04-25T14:46:11;5.10;;;3.47;;
21743;SDS011;11034;48.556;9.342;2023-04-25T14:48:40;5.05;;;3.58;;
21743;SDS011;11034;48.556;9.342;2023-04-25T14:51:09;4.28;;;3.53;;
21743;SDS011;11034;48.556;9.342;2023-04-25T14:53:37;5.38;;;3.47;;
21743;SDS011;11034;48.556;9.342;2023-04-25T14:56:05;4.95;;;3.60;;
21743;SDS011;11034;48.556;9.342;2023-04-25T14:58:35;3.72;;;3.13;;
21743;SDS011;11034;48.556;9.342;2023-04-25T15:01:03;6.25;;;3.63;;
21743;SDS011;11034;48.556;9.342;2023-04-25T15:03:33;5.85;;;3.53;;
21743;SDS011;11034;48.556;9.342;2023-04-25T15:06:03;6.40;;;3.60;;